createdAt,value
2023-01-29T00:02:19.018Z,102973.50
2023-01-29T00:04:46.163Z,102973.56
2023-01-29T00:07:13.107Z,102970.00
2023-01-29T00:09:40.322Z,102960.31
2023-01-29T00:12:09.097Z,102963.44
2023-01-29T00:14:36.206Z,102954.53
2023-01-29T00:17:03.220Z,102955.88
2023-01-29T00:19:30.242Z,102954.69
2023-01-29T00:21:57.161Z,102954.25
2023-01-29T00:24:24.188Z,102944.53
2023-01-29T00:26:51.286Z,102940.81
2023-01-29T00:29:18.541Z,102934.47
2023-01-29T00:31:46.071Z,102929.97
2023-01-29T00:34:13.516Z,102931.50
2023-01-29T00:36:40.538Z,102934.75
2023-01-29T00:39:10.870Z,102938.97
2023-01-29T00:41:57.099Z,102933.72
2023-01-29T00:44:42.833Z,102939.53
2023-01-29T00:47:45.439Z,102926.41
2023-01-29T00:50:13.343Z,102917.50
2023-01-29T00:52:43.761Z,102913.06
2023-01-29T00:55:11.819Z,102909.50
2023-01-29T00:57:39.240Z,102907.72
2023-01-29T01:00:11.278Z,102904.19
2023-01-29T01:02:57.005Z,102908.34
2023-01-29T01:05:24.598Z,102903.72
2023-01-29T01:07:55.847Z,102907.91
2023-01-29T01:10:30.753Z,102904.34
2023-01-29T01:13:02.254Z,102908.44
2023-01-29T01:15:37.627Z,102913.53
2023-01-29T01:18:05.480Z,102912.47
2023-01-29T01:20:35.972Z,102901.88
2023-01-29T01:23:03.860Z,102905.16
2023-01-29T01:25:31.367Z,102914.69
2023-01-29T01:30:27.965Z,102905.06
2023-01-29T01:32:55.805Z,102903.28
2023-01-29T01:35:22.797Z,102914.41
2023-01-29T01:37:49.863Z,102909.09
2023-01-29T01:40:20.557Z,102918.69
2023-01-29T01:42:54.791Z,102917.00
2023-01-29T01:45:26.794Z,102918.78
2023-01-29T01:48:12.957Z,102921.56
2023-01-29T01:50:51.014Z,102923.41
2023-01-29T01:53:39.835Z,102916.13
2023-01-29T01:56:16.269Z,102917.38
2023-01-29T01:58:56.699Z,102916.66
2023-01-29T02:01:28.055Z,102926.09
2023-01-29T02:04:27.862Z,102922.69
2023-01-29T02:07:20.376Z,102914.00
2023-01-29T02:10:14.195Z,102917.44
2023-01-29T02:12:47.660Z,102913.06
2023-01-29T02:15:16.253Z,102914.78
2023-01-29T02:17:48.143Z,102920.94
2023-01-29T02:20:24.272Z,102922.78
2023-01-29T02:22:55.268Z,102924.72
2023-01-29T02:26:05.044Z,102916.38
2023-01-29T02:29:22.490Z,102922.59
2023-01-29T02:32:10.105Z,102931.50
2023-01-29T02:35:23.280Z,102932.56
2023-01-29T02:38:28.961Z,102938.16
2023-01-29T02:41:05.011Z,102933.44
2023-01-29T02:43:44.487Z,102927.91
2023-01-29T02:46:23.026Z,102930.97
2023-01-29T02:49:09.335Z,102931.56
2023-01-29T02:52:07.514Z,102932.78
2023-01-29T02:54:53.634Z,102916.78
2023-01-29T02:57:30.598Z,102917.94
2023-01-29T03:00:04.722Z,102924.25
2023-01-29T03:02:42.667Z,102918.38
2023-01-29T03:05:21.818Z,102913.50
2023-01-29T03:08:00.399Z,102929.34
2023-01-29T03:10:40.535Z,102924.34
2023-01-29T03:13:26.402Z,102925.41
2023-01-29T03:16:09.647Z,102924.59
2023-01-29T03:18:50.868Z,102923.78
2023-01-29T03:21:46.679Z,102920.47
2023-01-29T03:24:38.458Z,102909.47
2023-01-29T03:27:30.407Z,102924.50
2023-01-29T03:30:19.466Z,102921.28
2023-01-29T03:33:05.336Z,102930.09
2023-01-29T03:35:39.593Z,102921.53
2023-01-29T03:38:11.112Z,102924.28
2023-01-29T03:40:53.053Z,102917.47
2023-01-29T03:43:36.507Z,102916.75
2023-01-29T03:46:31.449Z,102896.16
2023-01-29T03:49:20.092Z,102899.66
2023-01-29T03:51:59.374Z,102898.75
2023-01-29T03:54:45.391Z,102892.03
2023-01-29T03:57:16.053Z,102892.13
2023-01-29T04:00:02.254Z,102888.81
2023-01-29T04:02:57.137Z,102884.44
2023-01-29T04:05:36.569Z,102878.38
2023-01-29T04:08:27.683Z,102876.84
2023-01-29T04:11:07.262Z,102867.44
2023-01-29T04:13:36.468Z,102870.03
2023-01-29T04:16:12.875Z,102876.03
2023-01-29T04:19:06.201Z,102874.41
2023-01-29T04:21:38.743Z,102875.34
2023-01-29T04:24:08.200Z,102874.53
2023-01-29T04:27:00.807Z,102871.94
2023-01-29T04:29:51.549Z,102862.34
2023-01-29T04:32:29.651Z,102856.41
2023-01-29T04:35:31.703Z,102858.13
2023-01-29T04:38:33.517Z,102858.13
2023-01-29T04:41:35.344Z,102846.88
2023-01-29T04:44:10.919Z,102824.47
2023-01-29T04:47:06.597Z,102825.34
2023-01-29T04:50:12.847Z,102825.44
2023-01-29T04:52:52.385Z,102818.59
2023-01-29T04:55:28.674Z,102816.19
2023-01-29T04:58:29.236Z,102808.56
2023-01-29T05:00:59.876Z,102815.53
2023-01-29T05:03:29.807Z,102812.94
2023-01-29T05:06:01.814Z,102824.22
2023-01-29T05:08:32.724Z,102813.16
2023-01-29T05:11:01.060Z,102816.63
2023-01-29T05:13:32.752Z,102805.50
2023-01-29T05:16:13.523Z,102809.97
2023-01-29T05:18:41.044Z,102802.34
2023-01-29T05:21:10.050Z,102789.59
2023-01-29T05:23:37.563Z,102804.47
2023-01-29T05:26:05.668Z,102795.97
2023-01-29T05:28:32.692Z,102790.88
2023-01-29T05:30:59.701Z,102791.91
2023-01-29T05:33:31.508Z,102792.94
2023-01-29T05:35:59.841Z,102798.31
2023-01-29T05:38:26.879Z,102789.81
2023-01-29T05:40:54.420Z,102788.22
2023-01-29T05:43:25.217Z,102791.78
2023-01-29T05:46:00.709Z,102795.28
2023-01-29T05:48:29.931Z,102804.00
2023-01-29T05:51:04.478Z,102808.47
2023-01-29T05:53:32.713Z,102805.94
2023-01-29T05:56:05.014Z,102811.16
2023-01-29T05:58:32.663Z,102819.03
2023-01-29T06:01:19.771Z,102833.03
2023-01-29T06:03:47.334Z,102833.03
2023-01-29T06:06:15.687Z,102832.28
2023-01-29T06:08:43.500Z,102833.25
2023-01-29T06:11:13.345Z,102828.09
2023-01-29T06:13:40.912Z,102840.25
2023-01-29T06:16:10.939Z,102847.16
2023-01-29T06:18:38.400Z,102847.16
2023-01-29T06:21:09.546Z,102842.84
2023-01-29T06:23:37.501Z,102823.03
2023-01-29T06:26:08.260Z,102820.53
2023-01-29T06:28:35.254Z,102817.91
2023-01-29T06:31:22.142Z,102799.59
2023-01-29T06:33:52.062Z,102799.44
2023-01-29T06:36:19.169Z,102807.16
2023-01-29T06:38:47.221Z,102799.31
2023-01-29T06:41:25.418Z,102801.09
2023-01-29T06:43:52.911Z,102793.22
2023-01-29T06:46:19.992Z,102795.81
2023-01-29T06:48:47.096Z,102789.84
2023-01-29T06:51:14.105Z,102793.31
2023-01-29T06:53:42.347Z,102795.91
2023-01-29T06:56:10.141Z,102789.00
2023-01-29T06:58:41.400Z,102782.16
2023-01-29T07:01:17.554Z,102783.03
2023-01-29T07:03:52.378Z,102786.47
2023-01-29T07:06:22.657Z,102794.25
2023-01-29T07:08:49.575Z,102805.59
2023-01-29T07:11:16.715Z,102803.91
2023-01-29T07:13:43.769Z,102797.97
2023-01-29T07:16:10.828Z,102796.34
2023-01-29T07:18:37.837Z,102796.34
2023-01-29T07:21:07.129Z,102805.91
2023-01-29T07:23:35.098Z,102804.19
2023-01-29T07:26:06.359Z,102801.63
2023-01-29T07:28:40.122Z,102792.19
2023-01-29T07:31:15.356Z,102777.50
2023-01-29T07:33:46.369Z,102781.00
2023-01-29T07:36:13.641Z,102777.63
2023-01-29T07:38:40.775Z,102785.56
2023-01-29T07:41:09.808Z,102786.53
2023-01-29T07:43:36.756Z,102781.41
2023-01-29T07:46:05.082Z,102782.41
2023-01-29T07:48:32.548Z,102778.13
2023-01-29T07:51:00.195Z,102780.78
2023-01-29T07:53:28.434Z,102780.94
2023-01-29T07:55:56.248Z,102787.19
2023-01-29T07:58:23.784Z,102794.22
2023-01-29T08:00:50.940Z,102789.22
2023-01-29T08:03:20.232Z,102793.69
2023-01-29T08:05:48.289Z,102790.25
2023-01-29T08:08:15.358Z,102792.94
2023-01-29T08:10:42.691Z,102784.31
2023-01-29T08:13:10.057Z,102791.28
2023-01-29T08:18:24.045Z,102775.03
2023-01-29T08:20:52.809Z,102770.84
2023-01-29T08:23:20.061Z,102760.56
2023-01-29T08:25:47.061Z,102748.84
2023-01-29T08:28:14.144Z,102744.56
2023-01-29T08:30:41.560Z,102736.69
2023-01-29T08:33:08.555Z,102737.22
2023-01-29T08:35:36.233Z,102732.56
2023-01-29T08:38:05.565Z,102737.25
2023-01-29T08:40:35.116Z,102749.59
2023-01-29T08:43:08.637Z,102745.47
2023-01-29T08:45:41.766Z,102737.88
2023-01-29T08:48:09.570Z,102740.00
2023-01-29T08:50:38.029Z,102726.25
2023-01-29T08:53:08.358Z,102735.72
2023-01-29T08:55:41.932Z,102715.56
2023-01-29T08:58:12.242Z,102723.16
2023-01-29T09:00:39.585Z,102727.28
2023-01-29T09:03:07.894Z,102724.56
2023-01-29T09:05:37.456Z,102721.03
2023-01-29T09:08:06.564Z,102719.28
2023-01-29T09:10:34.401Z,102718.47
2023-01-29T09:13:01.668Z,102708.97
2023-01-29T09:15:28.830Z,102714.31
2023-01-29T09:17:56.039Z,102710.84
2023-01-29T09:20:22.998Z,102705.72
2023-01-29T09:22:52.023Z,102711.00
2023-01-29T09:25:19.261Z,102704.13
2023-01-29T09:27:46.372Z,102706.00
2023-01-29T09:30:14.062Z,102703.47
2023-01-29T09:32:53.221Z,102700.75
2023-01-29T09:35:22.710Z,102714.69
2023-01-29T09:37:51.783Z,102712.13
2023-01-29T09:40:35.458Z,102714.03
2023-01-29T09:43:40.723Z,102709.00
2023-01-29T09:46:40.581Z,102725.66
2023-01-29T09:49:19.316Z,102723.16
2023-01-29T09:51:58.823Z,102717.28
2023-01-29T09:55:07.285Z,102720.03
2023-01-29T09:57:48.343Z,102717.59
2023-01-29T10:00:49.775Z,102717.81
2023-01-29T10:03:44.664Z,102707.56
2023-01-29T10:06:35.117Z,102707.72
2023-01-29T10:09:37.374Z,102711.41
2023-01-29T10:12:22.554Z,102713.22
2023-01-29T10:15:35.141Z,102708.88
2023-01-29T10:19:22.423Z,102710.72
2023-01-29T10:22:26.046Z,102709.00
2023-01-29T10:24:58.050Z,102710.81
2023-01-29T10:27:34.635Z,102710.94
2023-01-29T10:30:09.514Z,102710.97
2023-01-29T10:32:37.629Z,102707.53
2023-01-29T10:35:20.108Z,102710.16
2023-01-29T10:37:47.911Z,102714.53
2023-01-29T10:40:42.427Z,102715.50
2023-01-29T10:43:30.040Z,102711.25
2023-01-29T10:46:35.511Z,102707.81
2023-01-29T10:49:08.537Z,102700.84
2023-01-29T10:52:01.369Z,102699.22
2023-01-29T10:54:55.911Z,102698.47
2023-01-29T10:57:53.665Z,102686.44
2023-01-29T11:00:30.600Z,102676.91
2023-01-29T11:02:58.139Z,102671.84
2023-01-29T11:05:32.002Z,102665.13
2023-01-29T11:08:08.759Z,102652.25
2023-01-29T11:10:50.252Z,102649.00
2023-01-29T11:13:18.535Z,102655.25
2023-01-29T11:15:45.572Z,102652.84
2023-01-29T11:18:15.681Z,102642.53
2023-01-29T11:20:45.449Z,102635.69
2023-01-29T11:23:31.809Z,102629.84
2023-01-29T11:26:00.894Z,102625.63
2023-01-29T11:28:42.231Z,102617.94
2023-01-29T11:31:26.172Z,102619.00
2023-01-29T11:34:05.524Z,102607.84
2023-01-29T11:36:40.626Z,102608.91
2023-01-29T11:39:24.819Z,102597.69
2023-01-29T11:42:05.135Z,102590.91
2023-01-29T11:44:42.979Z,102584.06
2023-01-29T11:47:26.109Z,102582.50
2023-01-29T11:49:58.147Z,102567.84
2023-01-29T11:52:36.456Z,102563.66
2023-01-29T11:55:27.510Z,102560.25
2023-01-29T11:58:18.067Z,102552.47
2023-01-29T12:00:55.332Z,102545.44
2023-01-29T12:03:43.807Z,102548.91
2023-01-29T12:06:21.313Z,102547.09
2023-01-29T12:09:01.315Z,102540.97
2023-01-29T12:11:32.702Z,102540.16
2023-01-29T12:14:20.755Z,102540.16
2023-01-29T12:17:26.733Z,102533.22
2023-01-29T12:20:03.796Z,102521.03
2023-01-29T12:22:53.399Z,102525.31
2023-01-29T12:25:43.637Z,102515.69
2023-01-29T12:28:34.493Z,102507.06
2023-01-29T12:31:25.910Z,102501.88
2023-01-29T12:34:27.612Z,102497.59
2023-01-29T12:37:23.935Z,102491.56
2023-01-29T12:39:52.494Z,102494.16
2023-01-29T12:42:23.359Z,102484.59
2023-01-29T12:45:03.146Z,102478.47
2023-01-29T12:47:42.877Z,102472.34
2023-01-29T12:50:33.578Z,102468.88
2023-01-29T12:53:34.042Z,102469.69
2023-01-29T12:56:31.247Z,102464.50
2023-01-29T12:59:06.771Z,102452.19
2023-01-29T13:01:43.216Z,102453.91
2023-01-29T13:04:53.808Z,102445.34
2023-01-29T13:07:31.314Z,102442.72
2023-01-29T13:10:12.431Z,102443.47
2023-01-29T13:12:54.255Z,102438.34
2023-01-29T13:15:33.298Z,102439.25
2023-01-29T13:18:22.198Z,102441.81
2023-01-29T13:20:51.191Z,102431.34
2023-01-29T13:23:38.067Z,102432.31
2023-01-29T13:26:06.331Z,102427.00
2023-01-29T13:28:33.607Z,102430.41
2023-01-29T13:31:34.565Z,102413.94
2023-01-29T13:34:08.814Z,102414.06
2023-01-29T13:36:42.227Z,102408.84
2023-01-29T13:39:25.088Z,102404.56
2023-01-29T13:41:55.806Z,102407.25
2023-01-29T13:44:29.875Z,102405.50
2023-01-29T13:47:07.167Z,102403.78
2023-01-29T13:49:45.732Z,102378.59
2023-01-29T13:52:43.258Z,102389.91
2023-01-29T13:55:22.659Z,102388.13
2023-01-29T13:57:56.771Z,102386.44
2023-01-29T14:00:30.962Z,102372.56
2023-01-29T14:03:00.930Z,102379.47
2023-01-29T14:05:31.085Z,102383.84
2023-01-29T14:08:14.003Z,102381.22
2023-01-29T14:10:43.541Z,102375.97
2023-01-29T14:13:19.372Z,102375.91
2023-01-29T14:16:12.337Z,102381.91
2023-01-29T14:19:06.265Z,102376.63
2023-01-29T14:21:37.071Z,102373.19
2023-01-29T14:24:20.988Z,102369.75
2023-01-29T14:26:55.190Z,102370.59
2023-01-29T14:29:34.725Z,102367.13
2023-01-29T14:32:20.484Z,102369.78
2023-01-29T14:34:56.412Z,102363.69
2023-01-29T14:37:36.114Z,102349.84
2023-01-29T14:40:11.850Z,102343.91
2023-01-29T14:42:55.876Z,102340.41
2023-01-29T14:45:38.868Z,102342.19
2023-01-29T14:48:36.703Z,102333.44
2023-01-29T14:51:20.257Z,102337.75
2023-01-29T14:54:02.153Z,102340.38
2023-01-29T14:56:57.187Z,102334.31
2023-01-29T14:59:34.240Z,102336.06
2023-01-29T15:02:17.370Z,102331.69
2023-01-29T15:04:54.428Z,102332.53
2023-01-29T15:07:37.189Z,102329.94
2023-01-29T15:10:23.339Z,102330.00
2023-01-29T15:12:59.816Z,102318.72
2023-01-29T15:15:48.089Z,102318.72
2023-01-29T15:18:19.357Z,102315.22
2023-01-29T15:20:46.794Z,102313.44
2023-01-29T15:23:30.359Z,102319.50
2023-01-29T15:26:05.804Z,102323.78
2023-01-29T15:28:35.985Z,102314.13
2023-01-29T15:31:12.016Z,102316.69
2023-01-29T15:33:45.491Z,102301.84
2023-01-29T15:36:25.692Z,102294.03
2023-01-29T15:39:25.496Z,102296.56
2023-01-29T15:42:13.488Z,102300.00
2023-01-29T15:44:46.648Z,102298.22
2023-01-29T15:47:15.584Z,102298.22
2023-01-29T15:49:45.651Z,102296.47
2023-01-29T15:52:28.264Z,102279.06
2023-01-29T15:55:02.179Z,102279.97
2023-01-29T15:57:37.568Z,102276.44
2023-01-29T16:00:08.964Z,102269.38
2023-01-29T16:02:42.889Z,102262.38
2023-01-29T16:05:22.097Z,102263.19
2023-01-29T16:07:52.388Z,102263.06
2023-01-29T16:10:24.402Z,102258.69
2023-01-29T16:12:53.496Z,102259.47
2023-01-29T16:15:34.815Z,102251.72
2023-01-29T16:18:19.931Z,102249.03
2023-01-29T16:20:53.076Z,102252.53
2023-01-29T16:23:44.228Z,102244.72
2023-01-29T16:26:25.488Z,102247.25
2023-01-29T16:28:53.020Z,102249.84
2023-01-29T16:31:29.778Z,102242.88
2023-01-29T16:33:58.945Z,102236.84
2023-01-29T16:36:28.055Z,102237.72
2023-01-29T16:39:06.483Z,102232.53
2023-01-29T16:41:37.519Z,102233.38
2023-01-29T16:44:35.342Z,102229.13
2023-01-29T16:47:36.040Z,102231.72
2023-01-29T16:50:36.083Z,102209.91
2023-01-29T16:53:19.676Z,102206.47
2023-01-29T16:55:49.746Z,102218.56
2023-01-29T16:58:21.284Z,102231.59
2023-01-29T17:01:04.986Z,102222.03
2023-01-29T17:03:34.607Z,102217.69
2023-01-29T17:06:35.070Z,102220.28
2023-01-29T17:09:05.345Z,102215.03
2023-01-29T17:11:40.051Z,102219.41
2023-01-29T17:14:11.236Z,102221.09
2023-01-29T17:17:01.489Z,102218.47
2023-01-29T17:19:30.172Z,102214.09
2023-01-29T17:21:59.120Z,102211.41
2023-01-29T17:24:27.294Z,102204.50
2023-01-29T17:26:54.559Z,102207.97
2023-01-29T17:29:31.361Z,102212.34
2023-01-29T17:32:00.159Z,102212.31
2023-01-29T17:34:27.656Z,102214.06
2023-01-29T17:36:55.695Z,102209.72
2023-01-29T17:39:24.427Z,102208.00
2023-01-29T17:41:57.591Z,102201.00
2023-01-29T17:44:28.405Z,102199.28
2023-01-29T17:46:55.450Z,102194.00
2023-01-29T17:49:29.624Z,102194.06
2023-01-29T17:51:57.297Z,102194.06
2023-01-29T17:54:25.604Z,102189.75
2023-01-29T17:56:54.228Z,102188.88
2023-01-29T17:59:24.227Z,102189.81
2023-01-29T18:01:52.001Z,102193.28
2023-01-29T18:04:19.227Z,102195.03
2023-01-29T18:06:50.247Z,102188.16
2023-01-29T18:09:20.611Z,102178.56
2023-01-29T18:11:49.333Z,102178.66
2023-01-29T18:14:17.599Z,102173.44
2023-01-29T18:16:45.943Z,102173.44
2023-01-29T18:19:23.051Z,102178.69
2023-01-29T18:21:51.038Z,102183.91
2023-01-29T18:24:19.243Z,102182.22
2023-01-29T18:26:48.108Z,102174.41
2023-01-29T18:29:15.353Z,102166.56
2023-01-29T18:31:42.523Z,102163.06
2023-01-29T18:34:09.561Z,102163.94
2023-01-29T18:36:36.524Z,102157.03
2023-01-29T18:39:03.726Z,102150.94
2023-01-29T18:41:30.759Z,102151.81
2023-01-29T18:43:57.743Z,102151.88
2023-01-29T18:46:24.803Z,102143.22
2023-01-29T18:48:51.870Z,102137.13
2023-01-29T18:51:18.839Z,102122.41
2023-01-29T18:53:52.303Z,102113.75
2023-01-29T18:56:19.723Z,102107.69
2023-01-29T18:58:52.148Z,102107.69
2023-01-29T19:01:22.816Z,102102.47
2023-01-29T19:03:49.786Z,102101.56
2023-01-29T19:06:16.888Z,102106.78
2023-01-29T19:08:44.044Z,102103.25
2023-01-29T19:11:12.594Z,102099.81
2023-01-29T19:13:40.519Z,102091.16
2023-01-29T19:16:10.164Z,102084.25
2023-01-29T19:18:37.630Z,102084.25
2023-01-29T19:21:14.335Z,102080.81
2023-01-29T19:23:43.667Z,102073.00
2023-01-29T19:26:11.506Z,102073.00
2023-01-29T19:28:38.768Z,102058.19
2023-01-29T19:31:05.918Z,102057.28
2023-01-29T19:33:33.057Z,102061.63
2023-01-29T19:36:00.282Z,102052.97
2023-01-29T19:38:28.543Z,102052.97
2023-01-29T19:40:55.587Z,102043.34
2023-01-29T19:43:22.563Z,102048.59
2023-01-29T19:45:51.090Z,102034.69
2023-01-29T19:48:22.008Z,102036.44
2023-01-29T19:51:02.289Z,102020.81
2023-01-29T19:53:31.484Z,102014.69
2023-01-29T19:56:10.674Z,101999.03
2023-01-29T19:58:41.064Z,101992.06
2023-01-29T20:01:22.929Z,101990.38
2023-01-29T20:03:50.412Z,101979.00
2023-01-29T20:06:24.912Z,101972.97
2023-01-29T20:08:51.865Z,101967.69
2023-01-29T20:11:22.018Z,101965.97
2023-01-29T20:13:52.055Z,102000.72
2023-01-29T20:16:20.356Z,101992.06
2023-01-29T20:18:47.349Z,101994.63
2023-01-29T20:21:18.065Z,102019.00
2023-01-29T20:23:46.056Z,102004.22
2023-01-29T20:26:16.541Z,101999.03
2023-01-29T20:28:47.201Z,101997.31
2023-01-29T20:31:16.236Z,101990.34
2023-01-29T20:33:52.401Z,101993.03
2023-01-29T20:36:19.374Z,102004.31
2023-01-29T20:38:47.911Z,102000.00
2023-01-29T20:41:19.916Z,101999.19
2023-01-29T20:43:49.743Z,101994.81
2023-01-29T20:46:17.672Z,101980.94
2023-01-29T20:48:44.739Z,101966.25
2023-01-29T20:51:17.634Z,101959.28
2023-01-29T20:53:47.890Z,101961.94
2023-01-29T20:56:17.513Z,101968.09
2023-01-29T20:58:46.801Z,101969.84
2023-01-29T21:01:18.612Z,101964.66
2023-01-29T21:03:46.887Z,101972.53
2023-01-29T21:06:14.713Z,101972.53
2023-01-29T21:08:42.074Z,101976.06
2023-01-29T21:11:09.844Z,101982.13
2023-01-29T21:13:37.622Z,101987.38
2023-01-29T21:16:05.857Z,101974.38
2023-01-29T21:18:32.849Z,101975.25
2023-01-29T21:20:59.841Z,101985.75
2023-01-29T21:23:26.835Z,101976.19
2023-01-29T21:25:54.104Z,101967.56
2023-01-29T21:28:21.092Z,101971.94
2023-01-29T21:30:48.186Z,101979.84
2023-01-29T21:33:15.164Z,101976.38
2023-01-29T21:35:42.161Z,101967.69
2023-01-29T21:38:09.287Z,101957.31
2023-01-29T21:40:36.321Z,101950.41
2023-01-29T21:43:13.064Z,101953.91
2023-01-29T21:45:41.139Z,101960.00
2023-01-29T21:48:10.732Z,101943.53
2023-01-29T21:50:38.714Z,101946.97
2023-01-29T21:53:05.967Z,101958.34
2023-01-29T21:55:33.326Z,101957.47
2023-01-29T21:58:00.666Z,101951.41
2023-01-29T22:00:28.031Z,101939.25
2023-01-29T22:02:55.135Z,101948.84
2023-01-29T22:05:22.218Z,101956.75
2023-01-29T22:07:49.923Z,101951.56
2023-01-29T22:10:19.157Z,101955.06
2023-01-29T22:12:47.340Z,101941.16
2023-01-29T22:15:15.503Z,101939.41
2023-01-29T22:17:42.974Z,101911.66
2023-01-29T22:20:14.350Z,101916.88
2023-01-29T22:22:41.816Z,101916.88
2023-01-29T22:25:09.798Z,101895.16
2023-01-29T22:27:36.915Z,101874.28
2023-01-29T22:30:05.690Z,101867.38
2023-01-29T22:32:32.938Z,101842.16
2023-01-29T22:34:59.942Z,101810.84
2023-01-29T22:37:28.345Z,101808.31
2023-01-29T22:39:55.305Z,101799.63
2023-01-29T22:42:22.357Z,101792.75
2023-01-29T22:44:49.339Z,101814.47
2023-01-29T22:47:16.411Z,101818.84
2023-01-29T22:49:45.598Z,101844.94
2023-01-29T22:52:12.751Z,101843.19
2023-01-29T22:54:42.981Z,101827.59
2023-01-29T22:57:13.656Z,101831.06
2023-01-29T22:59:41.299Z,101833.66
2023-01-29T23:02:09.182Z,101820.66
2023-01-29T23:04:36.459Z,101814.59
2023-01-29T23:07:04.258Z,101805.03
2023-01-29T23:09:31.309Z,101808.53
2023-01-29T23:11:58.262Z,101792.91
2023-01-29T23:14:25.250Z,101798.19
2023-01-29T23:16:52.412Z,101782.56
2023-01-29T23:19:19.698Z,101766.06
2023-01-29T23:21:46.869Z,101755.63
2023-01-29T23:24:14.148Z,101757.34
2023-01-29T23:26:59.549Z,101767.81
2023-01-29T23:29:26.701Z,101770.41
2023-01-29T23:31:53.898Z,101773.06
2023-01-29T23:34:20.838Z,101776.53
2023-01-29T23:36:47.978Z,101787.88
2023-01-29T23:39:15.656Z,101783.50
2023-01-29T23:41:43.120Z,101777.41
2023-01-29T23:44:10.415Z,101783.50
2023-01-29T23:46:37.426Z,101773.09
2023-01-29T23:49:04.510Z,101764.44
2023-01-29T23:51:31.550Z,101763.59
2023-01-29T23:53:58.662Z,101751.41
2023-01-29T23:56:25.787Z,101744.47
2023-01-29T23:58:54.933Z,101731.47
